sensor_id;sensor_type;location;lat;lon;timestamp;pressure;altitude;pressure_sealevel;temperature;humidity
62847;BME280;49477;35.676;139.586;2023-04-28T00:00:21;101801.07;;;24.86;33.03
62847;BME280;49477;35.676;139.586;2023-04-28T00:02:51;101795.07;;;25.11;32.99
62847;BME280;49477;35.676;139.586;2023-04-28T00:05:20;101794.56;;;24.96;32.93
62847;BME280;49477;35.676;139.586;2023-04-28T00:07:49;101790.01;;;25.23;32.87
62847;BME280;49477;35.676;139.586;2023-04-28T00:10:19;101793.66;;;25.05;32.89
62847;BME280;49477;35.676;139.586;2023-04-28T00:12:48;101786.54;;;25.30;32.60
62847;BME280;49477;35.676;139.586;2023-04-28T00:15:18;101785.72;;;25.33;32.47
62847;BME280;49477;35.676;139.586;2023-04-28T00:17:48;101783.27;;;25.39;32.43
62847;BME280;49477;35.676;139.586;2023-04-28T00:20:17;101777.14;;;25.20;32.64
62847;BME280;49477;35.676;139.586;2023-04-28T00:22:46;101773.40;;;25.46;32.75
62847;BME280;49477;35.676;139.586;2023-04-28T00:25:16;101772.44;;;25.27;32.65
62847;BME280;49477;35.676;139.586;2023-04-28T00:27:46;101769.85;;;25.52;32.69
62847;BME280;49477;35.676;139.586;2023-04-28T00:30:16;101772.40;;;25.58;32.74
62847;BME280;49477;35.676;139.586;2023-04-28T00:32:45;101763.24;;;25.38;32.55
62847;BME280;49477;35.676;139.586;2023-04-28T00:35:15;101762.24;;;25.44;32.38
62847;BME280;49477;35.676;139.586;2023-04-28T00:37:44;101753.86;;;25.67;32.42
62847;BME280;49477;35.676;139.586;2023-04-28T00:40:13;101749.87;;;25.23;32.35
62847;BME280;49477;35.676;139.586;2023-04-28T00:42:43;101744.72;;;25.28;32.41
62847;BME280;49477;35.676;139.586;2023-04-28T00:45:12;101741.85;;;25.58;32.35
62847;BME280;49477;35.676;139.586;2023-04-28T00:47:42;101734.38;;;25.31;32.42
62847;BME280;49477;35.676;139.586;2023-04-28T00:50:11;101733.76;;;25.85;32.26
62847;BME280;49477;35.676;139.586;2023-04-28T00:52:41;101728.13;;;25.38;32.20
62847;BME280;49477;35.676;139.586;2023-04-28T00:55:11;101726.31;;;25.40;32.16
62847;BME280;49477;35.676;139.586;2023-04-28T00:57:43;101728.85;;;25.45;31.89
62847;BME280;49477;35.676;139.586;2023-04-28T01:00:14;101727.05;;;25.48;31.96
62847;BME280;49477;35.676;139.586;2023-04-28T01:02:43;101723.49;;;25.53;31.96
62847;BME280;49477;35.676;139.586;2023-04-28T01:05:14;101718.50;;;25.55;31.97
62847;BME280;49477;35.676;139.586;2023-04-28T01:07:43;101720.91;;;25.37;31.91
62847;BME280;49477;35.676;139.586;2023-04-28T01:10:13;101726.89;;;25.64;31.84
62847;BME280;49477;35.676;139.586;2023-04-28T01:12:42;101725.13;;;25.90;31.81
62847;BME280;49477;35.676;139.586;2023-04-28T01:15:16;101723.93;;;25.47;31.78
62847;BME280;49477;35.676;139.586;2023-04-28T01:17:46;101717.88;;;25.74;31.83
62847;BME280;49477;35.676;139.586;2023-04-28T01:20:16;101721.22;;;25.78;31.94
62847;BME280;49477;35.676;139.586;2023-04-28T01:22:45;101728.00;;;25.59;31.84
62847;BME280;49477;35.676;139.586;2023-04-28T01:25:15;101722.30;;;25.85;31.78
62847;BME280;49477;35.676;139.586;2023-04-28T01:27:43;101730.10;;;25.42;31.82
62847;BME280;49477;35.676;139.586;2023-04-28T01:30:13;101731.80;;;25.90;31.79
62847;BME280;49477;35.676;139.586;2023-04-28T01:32:42;101730.20;;;25.92;31.89
62847;BME280;49477;35.676;139.586;2023-04-28T01:35:12;101737.02;;;25.94;31.89
62847;BME280;49477;35.676;139.586;2023-04-28T01:37:41;101738.95;;;25.99;31.77
62847;BME280;49477;35.676;139.586;2023-04-28T01:40:12;101737.18;;;25.80;31.70
62847;BME280;49477;35.676;139.586;2023-04-28T01:42:41;101730.20;;;26.04;31.81
62847;BME280;49477;35.676;139.586;2023-04-28T01:45:11;101738.87;;;26.08;31.78
62847;BME280;49477;35.676;139.586;2023-04-28T01:47:40;101734.50;;;26.12;31.79
62847;BME280;49477;35.676;139.586;2023-04-28T01:50:10;101727.10;;;26.17;31.74
62847;BME280;49477;35.676;139.586;2023-04-28T01:52:39;101724.59;;;25.97;31.75
62847;BME280;49477;35.676;139.586;2023-04-28T01:55:09;101730.10;;;26.24;31.66
62847;BME280;49477;35.676;139.586;2023-04-28T01:57:38;101723.55;;;26.23;31.63
62847;BME280;49477;35.676;139.586;2023-04-28T02:00:09;101724.75;;;25.77;31.69
62847;BME280;49477;35.676;139.586;2023-04-28T02:02:38;101720.82;;;26.28;31.67
62847;BME280;49477;35.676;139.586;2023-04-28T02:05:08;101712.79;;;26.09;31.70
62847;BME280;49477;35.676;139.586;2023-04-28T02:07:38;101712.56;;;26.14;31.66
62847;BME280;49477;35.676;139.586;2023-04-28T02:10:08;101699.63;;;26.38;31.59
62847;BME280;49477;35.676;139.586;2023-04-28T02:12:37;101701.07;;;26.19;31.63
62847;BME280;49477;35.676;139.586;2023-04-28T02:15:08;101710.12;;;26.22;31.61
62847;BME280;49477;35.676;139.586;2023-04-28T02:17:38;101700.86;;;26.05;31.58
62847;BME280;49477;35.676;139.586;2023-04-28T02:20:08;101698.24;;;26.50;31.55
62847;BME280;49477;35.676;139.586;2023-04-28T02:22:37;101695.80;;;26.11;31.53
62847;BME280;49477;35.676;139.586;2023-04-28T02:25:07;101690.65;;;26.58;31.50
62847;BME280;49477;35.676;139.586;2023-04-28T02:27:36;101694.04;;;26.59;31.52
62847;BME280;49477;35.676;139.586;2023-04-28T02:30:07;101689.94;;;26.39;31.51
62847;BME280;49477;35.676;139.586;2023-04-28T02:32:36;101687.46;;;26.45;31.49
62847;BME280;49477;35.676;139.586;2023-04-28T02:35:06;101683.74;;;26.45;31.50
62847;BME280;49477;35.676;139.586;2023-04-28T02:37:36;101679.05;;;26.73;31.42
62847;BME280;49477;35.676;139.586;2023-04-28T02:40:06;101680.08;;;26.74;31.38
62847;BME280;49477;35.676;139.586;2023-04-28T02:42:36;101682.72;;;26.77;31.37
62847;BME280;49477;35.676;139.586;2023-04-28T02:45:06;101677.90;;;26.31;31.41
62847;BME280;49477;35.676;139.586;2023-04-28T02:47:36;101673.58;;;26.57;31.45
62847;BME280;49477;35.676;139.586;2023-04-28T02:50:06;101669.17;;;26.85;31.43
62847;BME280;49477;35.676;139.586;2023-04-28T02:52:36;101670.57;;;26.38;31.51
62847;BME280;49477;35.676;139.586;2023-04-28T02:55:06;101670.37;;;26.64;31.49
62847;BME280;49477;35.676;139.586;2023-04-28T02:57:35;101667.64;;;26.47;31.47
62847;BME280;49477;35.676;139.586;2023-04-28T03:00:06;101666.27;;;26.48;31.39
62847;BME280;49477;35.676;139.586;2023-04-28T03:02:35;101659.96;;;26.51;31.37
62847;BME280;49477;35.676;139.586;2023-04-28T03:05:05;101662.42;;;26.76;31.38
62847;BME280;49477;35.676;139.586;2023-04-28T03:07:34;101655.10;;;26.62;31.27
62847;BME280;49477;35.676;139.586;2023-04-28T03:10:05;101659.75;;;27.09;31.35
62847;BME280;49477;35.676;139.586;2023-04-28T03:12:34;101652.57;;;26.72;31.24
62847;BME280;49477;35.676;139.586;2023-04-28T03:15:04;101644.11;;;26.67;31.33
62847;BME280;49477;35.676;139.586;2023-04-28T03:17:33;101647.42;;;26.47;31.28
62847;BME280;49477;35.676;139.586;2023-04-28T03:20:03;101636.88;;;26.75;31.33
62847;BME280;49477;35.676;139.586;2023-04-28T03:22:32;101629.58;;;26.78;31.32
62847;BME280;49477;35.676;139.586;2023-04-28T03:25:02;101628.15;;;26.81;31.37
62847;BME280;49477;35.676;139.586;2023-04-28T03:27:31;101622.04;;;26.61;31.31
62847;BME280;49477;35.676;139.586;2023-04-28T03:30:01;101618.20;;;26.90;31.31
62847;BME280;49477;35.676;139.586;2023-04-28T03:32:30;101609.68;;;26.91;31.34
62847;BME280;49477;35.676;139.586;2023-04-28T03:35:00;101608.78;;;26.93;31.35
62847;BME280;49477;35.676;139.586;2023-04-28T03:37:29;101603.98;;;26.99;31.33
62847;BME280;49477;35.676;139.586;2023-04-28T03:39:59;101603.87;;;26.99;31.36
62847;BME280;49477;35.676;139.586;2023-04-28T03:42:28;101605.94;;;27.04;31.33
62847;BME280;49477;35.676;139.586;2023-04-28T03:44:58;101599.95;;;27.00;31.48
62847;BME280;49477;35.676;139.586;2023-04-28T03:47:27;101597.61;;;26.76;31.52
62847;BME280;49477;35.676;139.586;2023-04-28T03:49:57;101597.45;;;27.12;31.47
62847;BME280;49477;35.676;139.586;2023-04-28T03:52:27;101591.21;;;27.14;31.49
62847;BME280;49477;35.676;139.586;2023-04-28T03:54:56;101589.55;;;27.15;31.48
62847;BME280;49477;35.676;139.586;2023-04-28T03:57:26;101590.59;;;27.18;31.52
62847;BME280;49477;35.676;139.586;2023-04-28T03:59:55;101583.48;;;26.98;31.48
62847;BME280;49477;35.676;139.586;2023-04-28T04:02:25;101584.36;;;27.00;31.42
62847;BME280;49477;35.676;139.586;2023-04-28T04:04:54;101577.73;;;27.26;31.47
62847;BME280;49477;35.676;139.586;2023-04-28T04:07:23;101572.56;;;27.05;31.39
62847;BME280;49477;35.676;139.586;2023-04-28T04:09:53;101571.38;;;27.37;31.35
62847;BME280;49477;35.676;139.586;2023-04-28T04:12:23;101576.94;;;27.16;31.34
62847;BME280;49477;35.676;139.586;2023-04-28T04:14:52;101564.92;;;27.46;31.27
62847;BME280;49477;35.676;139.586;2023-04-28T04:17:21;101570.40;;;27.24;31.24
62847;BME280;49477;35.676;139.586;2023-04-28T04:19:51;101564.88;;;27.25;31.19
62847;BME280;49477;35.676;139.586;2023-04-28T04:22:20;101565.48;;;27.31;31.16
62847;BME280;49477;35.676;139.586;2023-04-28T04:24:50;101552.12;;;27.31;31.15
62847;BME280;49477;35.676;139.586;2023-04-28T04:27:19;101548.49;;;27.40;31.05
62847;BME280;49477;35.676;139.586;2023-04-28T04:29:48;101551.35;;;27.71;31.01
62847;BME280;49477;35.676;139.586;2023-04-28T04:32:18;101545.04;;;27.43;31.06
62847;BME280;49477;35.676;139.586;2023-04-28T04:34:48;101549.68;;;27.42;31.09
62847;BME280;49477;35.676;139.586;2023-04-28T04:37:17;101544.60;;;27.49;31.02
62847;BME280;49477;35.676;139.586;2023-04-28T04:39:47;101542.10;;;27.80;31.00
62847;BME280;49477;35.676;139.586;2023-04-28T04:42:16;101537.19;;;27.81;30.98
62847;BME280;49477;35.676;139.586;2023-04-28T04:44:46;101539.03;;;27.56;31.02
62847;BME280;49477;35.676;139.586;2023-04-28T04:47:15;101534.01;;;27.58;31.00
62847;BME280;49477;35.676;139.586;2023-04-28T04:49:44;101525.12;;;27.64;30.97
62847;BME280;49477;35.676;139.586;2023-04-28T04:52:14;101522.76;;;27.67;30.95
62847;BME280;49477;35.676;139.586;2023-04-28T04:54:44;101522.61;;;27.71;30.95
62847;BME280;49477;35.676;139.586;2023-04-28T04:57:13;101520.11;;;27.73;30.92
62847;BME280;49477;35.676;139.586;2023-04-28T04:59:42;101515.16;;;27.55;30.85
62847;BME280;49477;35.676;139.586;2023-04-28T05:02:12;101512.99;;;27.59;30.86
62847;BME280;49477;35.676;139.586;2023-04-28T05:04:41;101507.62;;;27.61;30.84
62847;BME280;49477;35.676;139.586;2023-04-28T05:07:11;101507.64;;;27.92;30.75
62847;BME280;49477;35.676;139.586;2023-04-28T05:09:40;101497.19;;;27.68;30.81
62847;BME280;49477;35.676;139.586;2023-04-28T05:12:10;101496.92;;;27.96;30.80
62847;BME280;49477;35.676;139.586;2023-04-28T05:14:39;101488.92;;;27.77;30.78
62847;BME280;49477;35.676;139.586;2023-04-28T05:17:09;101478.17;;;27.80;30.73
62847;BME280;49477;35.676;139.586;2023-04-28T05:19:38;101479.90;;;27.86;30.75
62847;BME280;49477;35.676;139.586;2023-04-28T05:22:08;101477.09;;;27.88;30.79
62847;BME280;49477;35.676;139.586;2023-04-28T05:24:37;101474.54;;;28.06;30.82
62847;BME280;49477;35.676;139.586;2023-04-28T05:27:07;101472.78;;;28.13;30.81
62847;BME280;49477;35.676;139.586;2023-04-28T05:29:36;101468.65;;;27.92;30.80
62847;BME280;49477;35.676;139.586;2023-04-28T05:32:06;101467.85;;;28.22;30.75
62847;BME280;49477;35.676;139.586;2023-04-28T05:34:35;101464.66;;;27.79;30.72
62847;BME280;49477;35.676;139.586;2023-04-28T05:37:05;101463.02;;;28.27;30.71
62847;BME280;49477;35.676;139.586;2023-04-28T05:39:34;101451.89;;;28.05;30.77
62847;BME280;49477;35.676;139.586;2023-04-28T05:42:04;101455.90;;;28.09;30.76
62847;BME280;49477;35.676;139.586;2023-04-28T05:44:33;101447.67;;;28.39;30.69
62847;BME280;49477;35.676;139.586;2023-04-28T05:47:03;101444.93;;;28.19;30.66
62847;BME280;49477;35.676;139.586;2023-04-28T05:49:32;101447.58;;;28.23;30.58
62847;BME280;49477;35.676;139.586;2023-04-28T05:52:02;101444.26;;;28.22;30.60
62847;BME280;49477;35.676;139.586;2023-04-28T05:54:31;101444.37;;;28.25;30.48
62847;BME280;49477;35.676;139.586;2023-04-28T05:57:01;101438.65;;;28.28;30.44
62847;BME280;49477;35.676;139.586;2023-04-28T05:59:30;101433.50;;;27.78;30.40
62847;BME280;49477;35.676;139.586;2023-04-28T06:02:00;101432.84;;;28.28;30.36
62847;BME280;49477;35.676;139.586;2023-04-28T06:04:29;101421.63;;;28.11;30.33
62847;BME280;49477;35.676;139.586;2023-04-28T06:06:59;101419.49;;;28.33;30.26
62847;BME280;49477;35.676;139.586;2023-04-28T06:09:28;101422.59;;;28.31;30.16
62847;BME280;49477;35.676;139.586;2023-04-28T06:11:58;101422.86;;;28.13;30.06
62847;BME280;49477;35.676;139.586;2023-04-28T06:14:28;101415.38;;;28.35;30.01
62847;BME280;49477;35.676;139.586;2023-04-28T06:16:57;101422.85;;;28.36;29.94
62847;BME280;49477;35.676;139.586;2023-04-28T06:19:26;101420.49;;;28.37;29.90
62847;BME280;49477;35.676;139.586;2023-04-28T06:21:56;101416.95;;;28.40;29.83
62847;BME280;49477;35.676;139.586;2023-04-28T06:24:26;101411.54;;;28.42;29.88
62847;BME280;49477;35.676;139.586;2023-04-28T06:26:55;101413.44;;;28.42;29.91
62847;BME280;49477;35.676;139.586;2023-04-28T06:29:24;101414.17;;;28.48;29.79
62847;BME280;49477;35.676;139.586;2023-04-28T06:31:54;101410.95;;;28.47;29.80
62847;BME280;49477;35.676;139.586;2023-04-28T06:34:24;101409.95;;;28.49;29.83
62847;BME280;49477;35.676;139.586;2023-04-28T06:36:54;101411.72;;;28.48;29.79
62847;BME280;49477;35.676;139.586;2023-04-28T06:39:23;101406.54;;;28.54;29.72
62847;BME280;49477;35.676;139.586;2023-04-28T06:41:53;101410.81;;;28.55;29.68
62847;BME280;49477;35.676;139.586;2023-04-28T06:44:22;101415.18;;;28.37;29.65
62847;BME280;49477;35.676;139.586;2023-04-28T06:46:52;101411.27;;;28.58;29.57
62847;BME280;49477;35.676;139.586;2023-04-28T06:49:21;101406.47;;;28.61;29.54
62847;BME280;49477;35.676;139.586;2023-04-28T06:51:50;101407.66;;;28.40;29.48
62847;BME280;49477;35.676;139.586;2023-04-28T06:54:19;101410.79;;;28.44;29.44
62847;BME280;49477;35.676;139.586;2023-04-28T06:56:49;101405.63;;;28.66;29.41
62847;BME280;49477;35.676;139.586;2023-04-28T06:59:18;101408.18;;;28.69;29.38
62847;BME280;49477;35.676;139.586;2023-04-28T07:01:48;101411.28;;;28.71;29.38
62847;BME280;49477;35.676;139.586;2023-04-28T07:04:18;101416.62;;;28.72;29.36
62847;BME280;49477;35.676;139.586;2023-04-28T07:06:47;101409.85;;;28.27;29.37
62847;BME280;49477;35.676;139.586;2023-04-28T07:09:16;101415.33;;;28.53;29.43
62847;BME280;49477;35.676;139.586;2023-04-28T07:11:46;101419.61;;;28.78;29.40
62847;BME280;49477;35.676;139.586;2023-04-28T07:14:15;101419.27;;;28.55;29.33
62847;BME280;49477;35.676;139.586;2023-04-28T07:16:45;101419.30;;;28.53;29.30
62847;BME280;49477;35.676;139.586;2023-04-28T07:19:15;101416.57;;;28.57;29.27
62847;BME280;49477;35.676;139.586;2023-04-28T07:21:44;101415.56;;;28.60;29.21
62847;BME280;49477;35.676;139.586;2023-04-28T07:24:13;101417.92;;;28.82;29.19
62847;BME280;49477;35.676;139.586;2023-04-28T07:26:43;101418.73;;;28.65;29.14
62847;BME280;49477;35.676;139.586;2023-04-28T07:29:13;101418.67;;;28.64;29.08
62847;BME280;49477;35.676;139.586;2023-04-28T07:31:42;101419.90;;;28.35;29.04
62847;BME280;49477;35.676;139.586;2023-04-28T07:34:11;101415.14;;;28.81;29.06
62847;BME280;49477;35.676;139.586;2023-04-28T07:36:41;101412.13;;;28.38;28.99
62847;BME280;49477;35.676;139.586;2023-04-28T07:39:10;101410.86;;;28.70;28.94
62847;BME280;49477;35.676;139.586;2023-04-28T07:41:40;101408.88;;;28.75;28.91
62847;BME280;49477;35.676;139.586;2023-04-28T07:44:09;101404.89;;;28.76;28.90
62847;BME280;49477;35.676;139.586;2023-04-28T07:46:38;101404.99;;;28.80;28.88
62847;BME280;49477;35.676;139.586;2023-04-28T07:49:08;101408.11;;;29.04;28.91
62847;BME280;49477;35.676;139.586;2023-04-28T07:51:38;101406.30;;;28.53;28.93
62847;BME280;49477;35.676;139.586;2023-04-28T07:54:08;101408.16;;;28.79;28.90
62847;BME280;49477;35.676;139.586;2023-04-28T07:56:37;101404.99;;;28.82;28.91
62847;BME280;49477;35.676;139.586;2023-04-28T07:59:07;101403.43;;;28.58;28.88
62847;BME280;49477;35.676;139.586;2023-04-28T08:01:36;101407.61;;;28.59;28.82
62847;BME280;49477;35.676;139.586;2023-04-28T08:04:07;101408.27;;;29.08;28.75
62847;BME280;49477;35.676;139.586;2023-04-28T08:06:36;101411.15;;;28.61;28.76
62847;BME280;49477;35.676;139.586;2023-04-28T08:09:06;101412.96;;;28.60;28.69
62847;BME280;49477;35.676;139.586;2023-04-28T08:11:35;101408.16;;;28.60;28.68
62847;BME280;49477;35.676;139.586;2023-04-28T08:14:04;101405.47;;;28.60;28.66
62847;BME280;49477;35.676;139.586;2023-04-28T08:16:34;101401.26;;;28.58;28.69
62847;BME280;49477;35.676;139.586;2023-04-28T08:19:04;101399.96;;;28.57;28.64
62847;BME280;49477;35.676;139.586;2023-04-28T08:21:33;101396.04;;;28.81;28.54
62847;BME280;49477;35.676;139.586;2023-04-28T08:24:03;101396.02;;;28.54;28.53
62847;BME280;49477;35.676;139.586;2023-04-28T08:26:32;101393.60;;;28.51;28.32
62847;BME280;49477;35.676;139.586;2023-04-28T08:29:02;101395.25;;;28.73;28.48
62847;BME280;49477;35.676;139.586;2023-04-28T08:31:31;101390.59;;;28.47;28.25
62847;BME280;49477;35.676;139.586;2023-04-28T08:34:06;101394.86;;;28.69;28.41
62847;BME280;49477;35.676;139.586;2023-04-28T08:36:36;101395.41;;;28.37;28.18
62847;BME280;49477;35.676;139.586;2023-04-28T08:39:05;101394.84;;;28.80;28.08
62847;BME280;49477;35.676;139.586;2023-04-28T08:41:38;101393.07;;;28.24;28.45
62847;BME280;49477;35.676;139.586;2023-04-28T08:44:10;101393.96;;;28.42;28.27
62847;BME280;49477;35.676;139.586;2023-04-28T08:46:41;101390.85;;;28.36;28.67
62847;BME280;49477;35.676;139.586;2023-04-28T08:49:14;101391.33;;;28.23;28.93
62847;BME280;49477;35.676;139.586;2023-04-28T08:51:49;101393.34;;;28.39;29.11
62847;BME280;49477;35.676;139.586;2023-04-28T08:54:20;101389.99;;;28.16;29.01
62847;BME280;49477;35.676;139.586;2023-04-28T08:56:49;101393.93;;;28.51;28.92
62847;BME280;49477;35.676;139.586;2023-04-28T08:59:19;101392.06;;;28.24;29.27
62847;BME280;49477;35.676;139.586;2023-04-28T09:01:50;101394.87;;;28.21;29.34
62847;BME280;49477;35.676;139.586;2023-04-28T09:04:20;101391.74;;;28.14;29.17
62847;BME280;49477;35.676;139.586;2023-04-28T09:06:49;101390.69;;;28.10;29.48
62847;BME280;49477;35.676;139.586;2023-04-28T09:09:21;101391.61;;;28.03;29.63
62847;BME280;49477;35.676;139.586;2023-04-28T09:11:53;101392.40;;;28.18;29.71
62847;BME280;49477;35.676;139.586;2023-04-28T09:14:23;101386.54;;;27.94;29.76
62847;BME280;49477;35.676;139.586;2023-04-28T09:16:52;101387.70;;;27.91;29.51
62847;BME280;49477;35.676;139.586;2023-04-28T09:19:22;101389.82;;;27.88;29.55
62847;BME280;49477;35.676;139.586;2023-04-28T09:21:53;101393.58;;;28.06;29.73
62847;BME280;49477;35.676;139.586;2023-04-28T09:24:32;101393.42;;;27.77;29.71
62847;BME280;49477;35.676;139.586;2023-04-28T09:27:03;101399.04;;;27.89;29.91
62847;BME280;49477;35.676;139.586;2023-04-28T09:29:32;101404.18;;;27.63;29.74
62847;BME280;49477;35.676;139.586;2023-04-28T09:32:19;101407.75;;;27.55;30.14
62847;BME280;49477;35.676;139.586;2023-04-28T09:34:50;101405.27;;;28.02;30.21
62847;BME280;49477;35.676;139.586;2023-04-28T09:37:20;101414.15;;;27.52;30.10
62847;BME280;49477;35.676;139.586;2023-04-28T09:39:52;101418.69;;;27.42;29.87
62847;BME280;49477;35.676;139.586;2023-04-28T09:42:39;101423.17;;;27.65;30.05
62847;BME280;49477;35.676;139.586;2023-04-28T09:45:10;101425.38;;;27.90;30.16
62847;BME280;49477;35.676;139.586;2023-04-28T09:47:42;101426.55;;;27.56;30.28
62847;BME280;49477;35.676;139.586;2023-04-28T09:50:13;101421.88;;;27.79;30.24
62847;BME280;49477;35.676;139.586;2023-04-28T09:52:44;101417.81;;;27.49;30.35
62847;BME280;49477;35.676;139.586;2023-04-28T09:55:13;101415.20;;;27.70;30.24
62847;BME280;49477;35.676;139.586;2023-04-28T09:57:45;101416.82;;;27.37;30.23
62847;BME280;49477;35.676;139.586;2023-04-28T10:00:17;101419.40;;;27.35;30.34
62847;BME280;49477;35.676;139.586;2023-04-28T10:02:49;101422.73;;;27.53;30.41
62847;BME280;49477;35.676;139.586;2023-04-28T10:05:19;101418.94;;;27.47;30.28
62847;BME280;49477;35.676;139.586;2023-04-28T10:07:49;101411.92;;;27.47;30.27
62847;BME280;49477;35.676;139.586;2023-04-28T10:10:19;101408.01;;;27.46;30.53
62847;BME280;49477;35.676;139.586;2023-04-28T10:12:48;101406.13;;;27.41;30.62
62847;BME280;49477;35.676;139.586;2023-04-28T10:15:19;101402.42;;;27.10;30.68
62847;BME280;49477;35.676;139.586;2023-04-28T10:17:51;101406.79;;;27.06;30.45
62847;BME280;49477;35.676;139.586;2023-04-28T10:20:22;101404.37;;;27.28;30.49
62847;BME280;49477;35.676;139.586;2023-04-28T10:23:10;101408.23;;;27.01;30.66
62847;BME280;49477;35.676;139.586;2023-04-28T10:25:48;101411.33;;;26.96;30.86
62847;BME280;49477;35.676;139.586;2023-04-28T10:28:21;101411.92;;;27.21;30.89
62847;BME280;49477;35.676;139.586;2023-04-28T10:31:10;101414.85;;;27.17;30.75
62847;BME280;49477;35.676;139.586;2023-04-28T10:33:41;101420.96;;;27.14;30.89
62847;BME280;49477;35.676;139.586;2023-04-28T10:36:17;101427.34;;;27.14;30.89
62847;BME280;49477;35.676;139.586;2023-04-28T10:39:14;101421.98;;;27.06;30.89
62847;BME280;49477;35.676;139.586;2023-04-28T10:41:46;101422.23;;;26.98;30.93
62847;BME280;49477;35.676;139.586;2023-04-28T10:44:48;101422.19;;;26.97;31.00
62847;BME280;49477;35.676;139.586;2023-04-28T10:47:17;101429.62;;;26.96;30.82
62847;BME280;49477;35.676;139.586;2023-04-28T10:50:19;101433.83;;;26.68;31.01
62847;BME280;49477;35.676;139.586;2023-04-28T10:52:50;101438.42;;;26.84;30.78
62847;BME280;49477;35.676;139.586;2023-04-28T10:55:35;101441.94;;;26.88;30.90
62847;BME280;49477;35.676;139.586;2023-04-28T10:58:37;101446.89;;;26.88;31.00
62847;BME280;49477;35.676;139.586;2023-04-28T11:01:39;101447.93;;;26.82;30.98
62847;BME280;49477;35.676;139.586;2023-04-28T11:04:09;101451.64;;;26.84;31.09
62847;BME280;49477;35.676;139.586;2023-04-28T11:06:40;101454.77;;;26.79;30.94
62847;BME280;49477;35.676;139.586;2023-04-28T11:09:46;101458.72;;;26.76;31.24
62847;BME280;49477;35.676;139.586;2023-04-28T11:12:15;101453.81;;;26.94;31.15
62847;BME280;49477;35.676;139.586;2023-04-28T11:14:45;101461.16;;;26.72;31.21
62847;BME280;49477;35.676;139.586;2023-04-28T11:17:14;101466.55;;;26.87;31.25
62847;BME280;49477;35.676;139.586;2023-04-28T11:19:45;101474.45;;;26.57;31.32
62847;BME280;49477;35.676;139.586;2023-04-28T11:22:16;101476.02;;;26.82;31.33
62847;BME280;49477;35.676;139.586;2023-04-28T11:24:56;101481.24;;;26.80;31.14
62847;BME280;49477;35.676;139.586;2023-04-28T11:27:27;101486.80;;;26.73;31.15
62847;BME280;49477;35.676;139.586;2023-04-28T11:29:56;101488.64;;;26.73;31.32
62847;BME280;49477;35.676;139.586;2023-04-28T11:32:29;101487.64;;;26.48;31.43
62847;BME280;49477;35.676;139.586;2023-04-28T11:34:59;101482.81;;;26.37;31.22
62847;BME280;49477;35.676;139.586;2023-04-28T11:37:29;101480.81;;;26.60;31.37
62847;BME280;49477;35.676;139.586;2023-04-28T11:39:58;101486.02;;;26.60;31.17
62847;BME280;49477;35.676;139.586;2023-04-28T11:42:47;101492.25;;;26.38;31.23
62847;BME280;49477;35.676;139.586;2023-04-28T11:45:16;101491.25;;;26.57;31.35
62847;BME280;49477;35.676;139.586;2023-04-28T11:47:46;101493.75;;;26.46;31.25
62847;BME280;49477;35.676;139.586;2023-04-28T11:50:15;101492.36;;;26.70;31.33
62847;BME280;49477;35.676;139.586;2023-04-28T11:52:52;101494.17;;;26.26;31.45
62847;BME280;49477;35.676;139.586;2023-04-28T11:55:21;101493.52;;;26.20;31.53
62847;BME280;49477;35.676;139.586;2023-04-28T11:58:18;101495.19;;;26.60;31.43
62847;BME280;49477;35.676;139.586;2023-04-28T12:01:06;101492.39;;;26.39;31.41
62847;BME280;49477;35.676;139.586;2023-04-28T12:03:43;101487.82;;;26.59;31.52
62847;BME280;49477;35.676;139.586;2023-04-28T12:06:17;101484.51;;;26.54;31.42
62847;BME280;49477;35.676;139.586;2023-04-28T12:08:46;101487.42;;;26.49;31.39
62847;BME280;49477;35.676;139.586;2023-04-28T12:11:16;101489.43;;;26.50;31.48
62847;BME280;49477;35.676;139.586;2023-04-28T12:14:03;101486.31;;;25.98;31.34
62847;BME280;49477;35.676;139.586;2023-04-28T12:16:42;101488.19;;;26.01;31.59
62847;BME280;49477;35.676;139.586;2023-04-28T12:19:12;101493.96;;;25.95;31.65
62847;BME280;49477;35.676;139.586;2023-04-28T12:21:42;101491.78;;;26.19;31.59
62847;BME280;49477;35.676;139.586;2023-04-28T12:24:16;101487.28;;;26.36;31.64
62847;BME280;49477;35.676;139.586;2023-04-28T12:26:47;101489.41;;;26.13;31.69
62847;BME280;49477;35.676;139.586;2023-04-28T12:29:48;101493.12;;;25.90;31.62
62847;BME280;49477;35.676;139.586;2023-04-28T12:32:18;101496.40;;;26.34;31.64
62847;BME280;49477;35.676;139.586;2023-04-28T12:34:47;101496.41;;;26.08;31.79
62847;BME280;49477;35.676;139.586;2023-04-28T12:37:16;101488.55;;;26.27;31.87
62847;BME280;49477;35.676;139.586;2023-04-28T12:39:45;101488.70;;;26.25;31.84
62847;BME280;49477;35.676;139.586;2023-04-28T12:42:15;101488.04;;;26.00;31.89
62847;BME280;49477;35.676;139.586;2023-04-28T12:44:44;101483.79;;;26.23;31.90
62847;BME280;49477;35.676;139.586;2023-04-28T12:47:19;101484.10;;;26.20;31.86
62847;BME280;49477;35.676;139.586;2023-04-28T12:49:49;101483.29;;;26.15;32.01